Time;durP1;ratioP1;P1;durP2;ratioP2;P2;SDS_P1;SDS_P2;PMS_P1;PMS_P2;Temp;Humidity;BMP_temperature;BMP_pressure;BME280_temperature;BME280_humidity;BME280_pressure;Samples;Min_cycle;Max_cycle;Signal;HPM_P1;HPM_P2
2022/04/12 00:00:38;;;;;;;26.43;10.87;;;;;;;;;;5027455;28;20034;-73
2022/04/12 00:03:04;;;;;;;28.53;11.13;;;;;;;;;;5027510;28;20060;-73
2022/04/12 00:05:29;;;;;;;25.03;11.20;;;;;;;;;;5027832;28;20457;-73
2022/04/12 00:07:55;;;;;;;22.30;10.67;;;;;;;;;;5028721;28;20083;-73
2022/04/12 00:10:21;;;;;;;26.37;11.57;;;;;;;;;;5027659;28;20434;-73
2022/04/12 00:12:50;;;;;;;27.07;12.53;;;;;;;;;;5027653;28;20034;-73
2022/04/12 00:15:15;;;;;;;21.30;10.27;;;;;;;;;;5027546;28;20029;-73
2022/04/12 00:20:26;;;;;;;23.63;10.50;;;;;;;;;;5029426;28;20456;-73
2022/04/12 00:22:59;;;;;;;21.50;10.97;;;;;;;;;;5029725;28;20140;-72
2022/04/12 00:25:25;;;;;;;29.10;12.17;;;;;;;;;;5034903;28;20029;-74
2022/04/12 00:27:52;;;;;;;25.37;10.77;;;;;;;;;;5037766;28;20033;-73
2022/04/12 00:30:18;;;;;;;25.40;12.23;;;;;;;;;;5041287;28;20033;-74
2022/04/12 00:32:45;;;;;;;29.37;11.50;;;;;;;;;;5037826;28;20057;-73
2022/04/12 00:35:11;;;;;;;26.53;12.70;;;;;;;;;;5033539;28;20022;-74
2022/04/12 00:37:36;;;;;;;24.20;12.47;;;;;;;;;;5032257;28;20026;-72
2022/04/12 00:40:04;;;;;;;23.67;11.77;;;;;;;;;;5030981;28;20540;-74
2022/04/12 00:42:31;;;;;;;29.87;12.40;;;;;;;;;;5032295;28;20458;-73
2022/04/12 00:44:57;;;;;;;23.63;11.20;;;;;;;;;;5031928;28;20297;-74
2022/04/12 00:47:23;;;;;;;43.20;19.27;;;;;;;;;;5030735;28;20029;-73
2022/04/12 00:49:49;;;;;;;31.77;12.57;;;;;;;;;;5030313;28;20397;-72
2022/04/12 00:52:15;;;;;;;26.10;11.67;;;;;;;;;;5030804;28;20026;-73
2022/04/12 00:54:42;;;;;;;29.37;12.50;;;;;;;;;;5013910;28;20163;-72
2022/04/12 00:57:08;;;;;;;23.87;11.50;;;;;;;;;;5047218;28;20087;-74
2022/04/12 00:59:35;;;;;;;23.10;11.17;;;;;;;;;;5031859;28;20037;-73
2022/04/12 01:02:07;;;;;;;21.60;10.97;;;;;;;;;;5031681;28;20033;-73
2022/04/12 01:04:33;;;;;;;28.30;12.45;;;;;;;;;;5032036;28;20053;-73
2022/04/12 01:07:00;;;;;;;24.00;11.83;;;;;;;;;;5030560;28;20061;-73
2022/04/12 01:09:26;;;;;;;26.17;12.20;;;;;;;;;;5031818;28;20030;-73
2022/04/12 01:11:53;;;;;;;21.60;11.17;;;;;;;;;;5030058;28;20445;-73
2022/04/12 01:14:19;;;;;;;28.40;11.27;;;;;;;;;;5031707;28;20079;-72
2022/04/12 01:16:44;;;;;;;26.97;12.70;;;;;;;;;;5031150;28;20033;-72
2022/04/12 01:19:10;;;;;;;25.50;12.37;;;;;;;;;;5029938;28;20052;-73
2022/04/12 01:21:41;;;;;;;28.60;11.53;;;;;;;;;;5031184;28;20053;-73
2022/04/12 01:24:07;;;;;;;23.60;11.38;;;;;;;;;;5030007;28;20161;-73
2022/04/12 01:26:33;;;;;;;28.90;12.17;;;;;;;;;;5031507;28;20579;-73
2022/04/12 01:28:59;;;;;;;27.87;12.30;;;;;;;;;;5029723;28;20025;-73
2022/04/12 01:31:26;;;;;;;23.53;11.40;;;;;;;;;;5031330;28;20021;-73
2022/04/12 01:33:53;;;;;;;29.37;12.77;;;;;;;;;;5029986;28;20022;-73
2022/04/12 01:36:19;;;;;;;33.33;13.43;;;;;;;;;;5030003;28;20075;-73
2022/04/12 01:38:45;;;;;;;29.60;13.63;;;;;;;;;;5030902;28;20030;-73
2022/04/12 01:41:11;;;;;;;29.73;11.77;;;;;;;;;;5029456;28;20477;-74
2022/04/12 01:43:36;;;;;;;26.60;12.27;;;;;;;;;;5030030;28;20065;-73
2022/04/12 01:46:02;;;;;;;27.13;11.40;;;;;;;;;;5029820;28;20025;-73
2022/04/12 01:48:27;;;;;;;30.27;13.20;;;;;;;;;;5031053;28;20033;-73
2022/04/12 01:50:53;;;;;;;30.40;12.03;;;;;;;;;;5029192;28;20029;-73
2022/04/12 01:53:18;;;;;;;24.87;11.10;;;;;;;;;;5029737;28;20060;-73
2022/04/12 01:55:44;;;;;;;24.43;11.97;;;;;;;;;;5029229;28;20032;-73
2022/04/12 01:58:09;;;;;;;23.03;10.77;;;;;;;;;;5029358;28;20284;-73
2022/04/12 02:00:36;;;;;;;28.77;11.13;;;;;;;;;;5030733;28;20025;-73
2022/04/12 02:03:05;;;;;;;20.90;11.50;;;;;;;;;;5030633;28;20049;-74
2022/04/12 02:05:30;;;;;;;24.10;11.43;;;;;;;;;;5029302;28;20545;-72
2022/04/12 02:07:56;;;;;;;19.73;9.93;;;;;;;;;;5030358;28;20140;-72
2022/04/12 02:10:22;;;;;;;24.83;11.00;;;;;;;;;;5030551;28;20033;-72
2022/04/12 02:12:49;;;;;;;27.30;11.70;;;;;;;;;;5029119;28;20618;-71
2022/04/12 02:15:15;;;;;;;19.93;10.37;;;;;;;;;;5029192;28;20025;-71
2022/04/12 02:17:41;;;;;;;21.83;10.47;;;;;;;;;;5029075;28;20382;-71
2022/04/12 02:20:08;;;;;;;20.70;10.07;;;;;;;;;;5030322;28;20104;-71
2022/04/12 02:22:33;;;;;;;21.70;10.57;;;;;;;;;;5010240;28;20061;-71
2022/04/12 02:24:59;;;;;;;28.97;10.90;;;;;;;;;;5010225;28;20030;-72
2022/04/12 02:27:24;;;;;;;21.80;11.30;;;;;;;;;;5010369;28;20025;-73
2022/04/12 02:29:50;;;;;;;22.50;10.30;;;;;;;;;;5008639;28;20386;-72
2022/04/12 02:32:15;;;;;;;26.27;10.63;;;;;;;;;;5010418;28;20128;-70
2022/04/12 02:34:41;;;;;;;21.00;9.77;;;;;;;;;;5010294;28;20065;-72
2022/04/12 02:37:06;;;;;;;21.50;10.57;;;;;;;;;;5010041;28;20025;-72
2022/04/12 02:39:32;;;;;;;24.83;10.73;;;;;;;;;;5010171;28;20025;-72
2022/04/12 02:41:57;;;;;;;20.07;10.17;;;;;;;;;;5025121;28;20124;-71
2022/04/12 02:44:23;;;;;;;20.97;10.63;;;;;;;;;;5010192;28;20025;-71
2022/04/12 02:46:48;;;;;;;25.27;11.27;;;;;;;;;;5009892;28;20051;-72
2022/04/12 02:49:14;;;;;;;21.20;9.53;;;;;;;;;;5010374;28;20338;-72
2022/04/12 02:51:40;;;;;;;27.30;10.67;;;;;;;;;;5009084;28;20440;-71
2022/04/12 02:54:05;;;;;;;22.77;9.97;;;;;;;;;;5008328;28;20025;-72
2022/04/12 02:56:31;;;;;;;22.03;11.10;;;;;;;;;;5024918;28;20022;-72
2022/04/12 02:58:56;;;;;;;20.97;10.70;;;;;;;;;;5009693;28;20036;-72
2022/04/12 03:01:22;;;;;;;48.10;13.27;;;;;;;;;;5009832;28;20021;-71
2022/04/12 03:03:49;;;;;;;24.67;10.70;;;;;;;;;;5008473;28;20370;-72
2022/04/12 03:06:14;;;;;;;25.83;10.73;;;;;;;;;;5009791;28;20057;-70
2022/04/12 03:08:40;;;;;;;25.50;10.33;;;;;;;;;;5009946;28;20517;-70
2022/04/12 03:11:05;;;;;;;25.53;11.10;;;;;;;;;;5024389;28;20508;-71
2022/04/12 03:13:31;;;;;;;27.20;10.60;;;;;;;;;;5008689;28;20057;-71
2022/04/12 03:15:56;;;;;;;23.03;10.50;;;;;;;;;;5024393;28;20030;-71
2022/04/12 03:18:22;;;;;;;26.27;10.60;;;;;;;;;;5009462;28;20492;-71
2022/04/12 03:20:51;;;;;;;24.07;11.07;;;;;;;;;;5014767;28;20083;-72
2022/04/12 03:23:17;;;;;;;27.20;10.83;;;;;;;;;;5027466;28;20130;-71
2022/04/12 03:25:44;;;;;;;20.97;10.20;;;;;;;;;;5029376;28;20017;-71
2022/04/12 03:28:09;;;;;;;26.03;11.47;;;;;;;;;;5027677;28;20025;-71
2022/04/12 03:30:35;;;;;;;21.33;10.93;;;;;;;;;;5029483;28;20516;-71
2022/04/12 03:33:00;;;;;;;24.53;9.90;;;;;;;;;;5029138;28;20029;-72
2022/04/12 03:35:26;;;;;;;19.30;10.20;;;;;;;;;;5028079;28;20025;-71
2022/04/12 03:37:51;;;;;;;22.23;11.33;;;;;;;;;;5027629;28;20121;-71
2022/04/12 03:40:18;;;;;;;23.87;11.50;;;;;;;;;;5029245;28;20099;-73
2022/04/12 03:42:44;;;;;;;25.37;11.23;;;;;;;;;;5027609;28;20477;-73
2022/04/12 03:45:09;;;;;;;25.60;12.20;;;;;;;;;;5029131;28;20028;-72
2022/04/12 03:47:35;;;;;;;25.60;11.03;;;;;;;;;;5028302;28;20512;-72
2022/04/12 03:50:00;;;;;;;24.93;11.40;;;;;;;;;;5028854;28;20029;-73
2022/04/12 03:52:26;;;;;;;21.20;10.70;;;;;;;;;;5029530;28;20497;-73
2022/04/12 03:54:51;;;;;;;27.80;12.50;;;;;;;;;;5027641;28;20064;-71
2022/04/12 03:57:17;;;;;;;26.53;10.67;;;;;;;;;;5029523;28;20049;-73
2022/04/12 03:59:43;;;;;;;25.07;10.47;;;;;;;;;;5029115;28;20022;-72
2022/04/12 04:02:08;;;;;;;24.13;10.50;;;;;;;;;;5027837;28;20028;-71
2022/04/12 04:04:34;;;;;;;31.73;11.60;;;;;;;;;;5031861;28;20029;-71
2022/04/12 04:06:59;;;;;;;32.67;11.60;;;;;;;;;;5032853;28;20021;-71
2022/04/12 04:09:25;;;;;;;28.50;10.57;;;;;;;;;;5031409;28;20383;-71
2022/04/12 04:11:50;;;;;;;24.63;10.43;;;;;;;;;;5031462;28;20679;-71
2022/04/12 04:14:16;;;;;;;29.70;11.37;;;;;;;;;;5032834;28;20029;-71
2022/04/12 04:16:42;;;;;;;32.17;12.13;;;;;;;;;;5032957;28;20071;-70
2022/04/12 04:19:11;;;;;;;27.17;11.17;;;;;;;;;;5031140;28;20128;-71
2022/04/12 04:21:37;;;;;;;28.23;11.40;;;;;;;;;;5032308;28;20509;-71
2022/04/12 04:24:03;;;;;;;29.37;12.33;;;;;;;;;;5032489;28;20025;-72
2022/04/12 04:26:28;;;;;;;23.90;11.17;;;;;;;;;;5032678;28;20466;-71
2022/04/12 04:28:54;;;;;;;32.10;12.67;;;;;;;;;;5030801;28;20029;-71
2022/04/12 04:31:20;;;;;;;28.47;11.97;;;;;;;;;;5032427;28;20044;-71
2022/04/12 04:33:46;;;;;;;17.23;10.50;;;;;;;;;;5032254;28;20025;-71
2022/04/12 04:36:11;;;;;;;28.30;12.83;;;;;;;;;;5031015;28;20031;-72
2022/04/12 04:38:37;;;;;;;29.30;11.63;;;;;;;;;;5032316;28;20041;-72
2022/04/12 04:41:03;;;;;;;22.57;11.40;;;;;;;;;;5030838;28;20033;-72
2022/04/12 04:43:28;;;;;;;28.93;13.23;;;;;;;;;;5032564;28;20414;-71
2022/04/12 04:45:54;;;;;;;27.73;11.93;;;;;;;;;;5031982;28;20084;-71
2022/04/12 04:48:19;;;;;;;25.00;12.47;;;;;;;;;;5032110;28;20035;-71
2022/04/12 04:50:45;;;;;;;27.20;11.63;;;;;;;;;;5032097;28;20037;-72
2022/04/12 04:53:10;;;;;;;28.43;12.13;;;;;;;;;;5032022;28;20041;-72
2022/04/12 04:55:42;;;;;;;23.33;12.03;;;;;;;;;;5032587;28;20337;-71
2022/04/12 04:58:08;;;;;;;24.88;11.90;;;;;;;;;;5031849;28;20040;-72
2022/04/12 05:00:34;;;;;;;29.00;12.30;;;;;;;;;;5047311;28;20098;-72
2022/04/12 05:03:01;;;;;;;26.93;13.20;;;;;;;;;;5030362;28;20098;-72
2022/04/12 05:05:27;;;;;;;30.97;13.57;;;;;;;;;;5031776;28;20021;-72
2022/04/12 05:07:54;;;;;;;29.40;14.80;;;;;;;;;;5031759;28;20036;-72
2022/04/12 05:10:23;;;;;;;28.67;13.67;;;;;;;;;;5030711;28;20052;-73
2022/04/12 05:12:49;;;;;;;23.87;12.53;;;;;;;;;;5031971;28;20104;-71
2022/04/12 05:15:15;;;;;;;29.43;13.83;;;;;;;;;;5030308;28;20034;-73
2022/04/12 05:17:41;;;;;;;34.83;14.10;;;;;;;;;;5031600;28;20025;-73
2022/04/12 05:20:09;;;;;;;37.40;13.43;;;;;;;;;;5031462;28;20478;-71
2022/04/12 05:22:35;;;;;;;31.07;13.67;;;;;;;;;;5016668;28;20265;-71
2022/04/12 05:25:01;;;;;;;31.00;13.33;;;;;;;;;;5028008;28;20500;-71
2022/04/12 05:27:34;;;;;;;35.30;14.43;;;;;;;;;;5026492;28;20105;-73
2022/04/12 05:30:07;;;;;;;34.07;16.63;;;;;;;;;;5009513;28;20037;-73
2022/04/12 05:32:36;;;;;;;29.37;13.23;;;;;;;;;;5010887;28;20149;-71
2022/04/12 05:35:01;;;;;;;33.57;12.47;;;;;;;;;;5008978;28;20471;-71
2022/04/12 05:37:28;;;;;;;28.57;11.57;;;;;;;;;;5020360;28;20034;-70
2022/04/12 05:39:56;;;;;;;38.57;14.20;;;;;;;;;;5028156;28;20022;-72
2022/04/12 05:42:26;;;;;;;34.30;14.20;;;;;;;;;;5027934;28;20257;-71
2022/04/12 05:44:57;;;;;;;31.63;12.73;;;;;;;;;;5042477;28;20047;-73
2022/04/12 05:47:26;;;;;;;31.37;14.00;;;;;;;;;;5027582;28;20091;-73
2022/04/12 05:49:52;;;;;;;28.17;14.53;;;;;;;;;;5019676;28;20108;-73
2022/04/12 05:52:18;;;;;;;27.00;13.33;;;;;;;;;;5025455;28;20121;-72
2022/04/12 05:54:46;;;;;;;29.50;13.03;;;;;;;;;;5011958;28;20033;-72
2022/04/12 05:57:18;;;;;;;27.90;12.73;;;;;;;;;;5020757;28;20474;-71
2022/04/12 05:59:45;;;;;;;24.87;12.10;;;;;;;;;;5028390;28;20029;-71
2022/04/12 06:02:13;;;;;;;27.30;11.70;;;;;;;;;;5027413;28;20025;-72
2022/04/12 06:04:39;;;;;;;25.57;12.67;;;;;;;;;;5011733;28;20034;-72
2022/04/12 06:07:05;;;;;;;26.13;12.53;;;;;;;;;;5011708;28;20383;-74
2022/04/12 06:09:31;;;;;;;27.63;12.10;;;;;;;;;;5011395;28;20026;-74
2022/04/12 06:11:57;;;;;;;29.37;11.50;;;;;;;;;;5029679;28;20029;-71
2022/04/12 06:14:23;;;;;;;24.60;10.10;;;;;;;;;;5024373;28;20429;-74
2022/04/12 06:16:50;;;;;;;23.47;11.57;;;;;;;;;;5008957;28;20037;-71
2022/04/12 06:19:20;;;;;;;26.57;11.87;;;;;;;;;;5013648;28;20033;-72
2022/04/12 06:21:46;;;;;;;23.63;12.33;;;;;;;;;;5023477;28;20092;-73
2022/04/12 06:24:15;;;;;;;22.27;10.37;;;;;;;;;;5022243;28;20066;-73
2022/04/12 06:26:41;;;;;;;24.80;12.30;;;;;;;;;;5011091;28;20540;-71
2022/04/12 06:29:08;;;;;;;30.27;13.27;;;;;;;;;;5021029;28;20047;-71
2022/04/12 06:31:34;;;;;;;20.27;9.03;;;;;;;;;;5010341;28;20494;-72
2022/04/12 06:34:06;;;;;;;20.30;9.27;;;;;;;;;;5029669;28;20461;-73
2022/04/12 06:36:36;;;;;;;20.92;9.60;;;;;;;;;;5029933;28;20123;-74
2022/04/12 06:39:03;;;;;;;26.47;9.97;;;;;;;;;;5010639;28;20034;-75
2022/04/12 06:41:32;;;;;;;17.20;8.97;;;;;;;;;;5015792;28;20076;-74
2022/04/12 06:43:58;;;;;;;17.17;9.40;;;;;;;;;;5014855;28;20060;-74
2022/04/12 06:46:27;;;;;;;23.53;9.53;;;;;;;;;;5011719;28;20125;-74
2022/04/12 06:48:54;;;;;;;22.97;9.53;;;;;;;;;;5013026;28;20515;-73
2022/04/12 06:51:20;;;;;;;22.40;10.20;;;;;;;;;;5028754;28;20056;-73
2022/04/12 06:53:46;;;;;;;23.90;10.30;;;;;;;;;;5025957;28;20058;-74
2022/04/12 06:56:12;;;;;;;25.27;10.00;;;;;;;;;;5011688;28;20040;-74
2022/04/12 06:58:38;;;;;;;17.17;8.63;;;;;;;;;;5013674;28;20045;-74
2022/04/12 07:01:10;;;;;;;17.57;9.10;;;;;;;;;;5011954;28;20144;-73
2022/04/12 07:03:36;;;;;;;16.70;8.13;;;;;;;;;;5014995;28;20045;-73
2022/04/12 07:06:02;;;;;;;14.23;7.97;;;;;;;;;;5024196;28;20041;-74
2022/04/12 07:08:28;;;;;;;17.63;8.07;;;;;;;;;;5026496;28;20037;-74
2022/04/12 07:10:54;;;;;;;14.93;7.60;;;;;;;;;;5013909;28;20195;-72
2022/04/12 07:13:23;;;;;;;21.20;9.17;;;;;;;;;;5021716;28;20033;-72
2022/04/12 07:15:51;;;;;;;17.73;9.30;;;;;;;;;;5028191;28;20040;-74
2022/04/12 07:18:19;;;;;;;22.20;9.70;;;;;;;;;;5011148;28;20533;-73
2022/04/12 07:20:48;;;;;;;14.40;7.47;;;;;;;;;;5026990;28;20018;-73
2022/04/12 07:23:14;;;;;;;13.97;6.67;;;;;;;;;;5027547;28;20084;-73
2022/04/12 07:25:40;;;;;;;10.33;6.50;;;;;;;;;;5027370;28;20120;-73
2022/04/12 07:28:11;;;;;;;17.27;7.43;;;;;;;;;;5021332;28;20041;-73
2022/04/12 07:30:39;;;;;;;16.27;7.43;;;;;;;;;;5012784;28;20547;-74
2022/04/12 07:33:14;;;;;;;15.30;8.27;;;;;;;;;;5013926;28;20141;-74
2022/04/12 07:35:40;;;;;;;13.50;7.60;;;;;;;;;;5030322;28;20498;-74
2022/04/12 07:38:07;;;;;;;22.90;10.47;;;;;;;;;;5011448;28;20068;-74
2022/04/12 07:40:36;;;;;;;16.03;8.30;;;;;;;;;;5029122;28;20034;-74
2022/04/12 07:43:02;;;;;;;12.63;7.53;;;;;;;;;;5026183;28;20508;-73
2022/04/12 07:45:30;;;;;;;15.80;8.07;;;;;;;;;;5037799;28;20136;-73
2022/04/12 07:47:59;;;;;;;14.93;8.00;;;;;;;;;;5028772;28;20083;-73
2022/04/12 07:50:29;;;;;;;15.00;7.87;;;;;;;;;;5032518;28;20033;-73
2022/04/12 07:52:56;;;;;;;17.73;8.23;;;;;;;;;;5036787;28;20025;-68
2022/04/12 07:55:26;;;;;;;15.17;7.77;;;;;;;;;;5023669;28;20032;-71
2022/04/12 07:57:53;;;;;;;21.80;9.37;;;;;;;;;;5017068;28;20104;-75
2022/04/12 08:00:19;;;;;;;14.47;8.37;;;;;;;;;;5022603;28;20030;-72
2022/04/12 08:02:45;;;;;;;12.50;7.10;;;;;;;;;;5037294;28;20045;-74
2022/04/12 08:05:11;;;;;;;17.07;7.97;;;;;;;;;;5015865;28;20086;-74
2022/04/12 08:07:47;;;;;;;13.53;7.50;;;;;;;;;;5013678;28;20837;-73
2022/04/12 08:10:17;;;;;;;12.53;6.63;;;;;;;;;;5030251;28;20567;-74
2022/04/12 08:12:48;;;;;;;17.97;7.80;;;;;;;;;;5019115;28;20568;-74
2022/04/12 08:15:15;;;;;;;15.20;7.60;;;;;;;;;;5020471;28;20022;-74
2022/04/12 08:17:42;;;;;;;11.07;7.93;;;;;;;;;;5015484;28;20029;-74
2022/04/12 08:20:09;;;;;;;13.60;6.40;;;;;;;;;;5028940;28;20106;-74
2022/04/12 08:22:36;;;;;;;16.93;6.97;;;;;;;;;;5034100;28;20402;-74
2022/04/12 08:25:04;;;;;;;12.13;6.20;;;;;;;;;;5031130;28;20447;-73
2022/04/12 08:27:30;;;;;;;13.03;6.97;;;;;;;;;;5026027;28;20041;-72
2022/04/12 08:29:56;;;;;;;12.30;6.70;;;;;;;;;;5032552;28;20025;-73
2022/04/12 08:32:22;;;;;;;10.60;6.80;;;;;;;;;;5027472;28;20928;-74
2022/04/12 08:34:54;;;;;;;14.67;6.93;;;;;;;;;;5030030;28;20040;-72
2022/04/12 08:37:21;;;;;;;12.60;6.75;;;;;;;;;;5023852;28;20068;-72
2022/04/12 08:39:51;;;;;;;16.03;6.57;;;;;;;;;;5032937;28;20065;-73
2022/04/12 08:42:18;;;;;;;8.60;5.97;;;;;;;;;;5033558;28;20037;-73
2022/04/12 08:44:47;;;;;;;13.80;6.13;;;;;;;;;;5020495;28;20033;-74
2022/04/12 08:47:18;;;;;;;12.33;6.50;;;;;;;;;;5026676;28;20552;-73
2022/04/12 08:49:45;;;;;;;12.45;7.60;;;;;;;;;;5012181;28;20025;-73
2022/04/12 08:52:13;;;;;;;15.57;6.40;;;;;;;;;;5029423;28;20038;-74
2022/04/12 08:54:40;;;;;;;13.43;6.28;;;;;;;;;;5026414;28;20414;-73
2022/04/12 08:57:10;;;;;;;15.77;6.35;;;;;;;;;;5029868;28;20049;-73
2022/04/12 08:59:38;;;;;;;14.50;7.07;;;;;;;;;;5015906;28;20029;-73
2022/04/12 09:02:08;;;;;;;17.80;7.28;;;;;;;;;;5028993;28;20214;-73
2022/04/12 09:04:34;;;;;;;13.48;6.70;;;;;;;;;;5012662;28;20041;-74
2022/04/12 09:07:07;;;;;;;11.27;6.40;;;;;;;;;;5020664;28;20124;-72
2022/04/12 09:09:35;;;;;;;9.82;6.22;;;;;;;;;;5012566;28;20037;-72
2022/04/12 09:12:12;;;;;;;14.45;5.47;;;;;;;;;;4981318;28;20053;-73
2022/04/12 09:15:01;;;;;;;10.82;6.30;;;;;;;;;;5013656;28;20033;-72
2022/04/12 09:17:30;;;;;;;19.45;7.28;;;;;;;;;;5025700;28;20386;-72
2022/04/12 09:20:01;;;;;;;14.85;5.45;;;;;;;;;;5029953;28;20057;-71
2022/04/12 09:22:28;;;;;;;15.52;6.97;;;;;;;;;;5016507;28;20041;-73
2022/04/12 09:24:57;;;;;;;9.60;5.53;;;;;;;;;;5024718;28;20038;-71
2022/04/12 09:27:29;;;;;;;14.82;7.35;;;;;;;;;;5009039;28;20172;-73
2022/04/12 09:29:56;;;;;;;;;;;;;;;;;;5021327;28;20079;-75
2022/04/12 09:32:24;;;;;;;11.75;5.45;;;;;;;;;;5011402;28;19920;-75
2022/04/12 09:34:52;;;;;;;9.70;5.20;;;;;;;;;;5011615;28;20052;-76
2022/04/12 09:37:31;;;;;;;11.40;5.93;;;;;;;;;;5000425;28;20026;-74
2022/04/12 09:40:06;;;;;;;13.70;5.82;;;;;;;;;;5027965;28;20386;-71
2022/04/12 09:42:53;;;;;;;11.25;5.55;;;;;;;;;;5010882;28;20110;-73
2022/04/12 09:45:27;;;;;;;12.27;5.60;;;;;;;;;;5031451;28;20033;-74
2022/04/12 09:47:56;;;;;;;12.98;5.70;;;;;;;;;;5006857;28;20034;-74
2022/04/12 09:50:24;;;;;;;13.85;5.95;;;;;;;;;;5014777;28;20033;-72
2022/04/12 09:53:01;;;;;;;11.55;5.68;;;;;;;;;;5018651;28;20025;-73
2022/04/12 09:55:34;;;;;;;9.50;5.85;;;;;;;;;;5015077;28;20108;-73
2022/04/12 09:58:10;;;;;;;7.13;4.38;;;;;;;;;;5018867;28;20029;-73
2022/04/12 10:00:41;;;;;;;10.73;5.13;;;;;;;;;;5009246;28;20114;-74
2022/04/12 10:03:13;;;;;;;9.80;4.72;;;;;;;;;;5026890;28;20405;-72
2022/04/12 10:05:40;;;;;;;12.77;5.35;;;;;;;;;;5029501;28;20041;-72
2022/04/12 10:08:11;;;;;;;8.23;5.00;;;;;;;;;;5024649;28;20037;-72
2022/04/12 10:10:54;;;;;;;7.95;4.85;;;;;;;;;;5010287;28;20041;-73
2022/04/12 10:13:21;;;;;;;10.57;5.43;;;;;;;;;;5025593;28;20064;-73
2022/04/12 10:15:52;;;;;;;9.13;5.30;;;;;;;;;;5026409;28;20389;-74
2022/04/12 10:18:21;;;;;;;10.57;5.40;;;;;;;;;;5007381;28;20132;-73
2022/04/12 10:20:47;;;;;;;10.05;4.95;;;;;;;;;;5024427;28;20440;-73
2022/04/12 10:23:23;;;;;;;6.78;4.38;;;;;;;;;;5015236;28;20501;-74
2022/04/12 10:25:55;;;;;;;9.90;4.20;;;;;;;;;;5010573;28;20031;-73
2022/04/12 10:28:23;;;;;;;8.73;3.92;;;;;;;;;;5013592;28;20068;-74
2022/04/12 10:31:02;;;;;;;11.57;5.45;;;;;;;;;;5029899;28;20317;-74
2022/04/12 10:33:29;;;;;;;6.90;4.43;;;;;;;;;;5011227;28;20026;-72
2022/04/12 10:36:03;;;;;;;11.73;4.60;;;;;;;;;;5033211;28;20029;-74
2022/04/12 10:38:43;;;;;;;7.60;4.22;;;;;;;;;;5012513;28;20103;-72
2022/04/12 10:41:26;;;;;;;8.60;4.38;;;;;;;;;;5015738;28;20056;-74
2022/04/12 10:43:58;;;;;;;10.65;4.90;;;;;;;;;;5014966;28;20045;-73
2022/04/12 10:46:27;;;;;;;9.50;5.43;;;;;;;;;;5016117;28;20388;-74
2022/04/12 10:48:56;;;;;;;7.22;4.72;;;;;;;;;;5024691;28;20468;-75
2022/04/12 10:51:42;;;;;;;8.68;4.82;;;;;;;;;;5026572;28;20072;-75
2022/04/12 10:54:34;;;;;;;11.65;5.18;;;;;;;;;;5013396;28;20029;-75
2022/04/12 10:57:36;;;;;;;11.80;5.15;;;;;;;;;;5005842;28;20821;-73
2022/04/12 11:00:14;;;;;;;8.60;4.45;;;;;;;;;;4965040;28;20078;-75
2022/04/12 11:03:00;;;;;;;11.75;5.30;;;;;;;;;;5008133;28;20133;-73
2022/04/12 11:05:45;;;;;;;12.73;6.10;;;;;;;;;;5007535;28;20021;-75
2022/04/12 11:08:14;;;;;;;8.10;4.93;;;;;;;;;;5010503;28;20029;-74
2022/04/12 11:10:54;;;;;;;16.85;6.25;;;;;;;;;;5020677;28;20022;-73
2022/04/12 11:13:22;;;;;;;11.02;5.95;;;;;;;;;;5027159;28;20037;-76
2022/04/12 11:16:08;;;;;;;9.05;5.15;;;;;;;;;;5026920;28;20022;-75
2022/04/12 11:18:58;;;;;;;10.73;5.60;;;;;;;;;;5021408;28;20854;-74
2022/04/12 11:21:54;;;;;;;9.43;4.60;;;;;;;;;;5015384;28;20056;-73
2022/04/12 11:24:27;;;;;;;9.70;4.93;;;;;;;;;;5022295;28;20516;-75
2022/04/12 11:27:06;;;;;;;8.68;5.07;;;;;;;;;;5007692;28;20442;-74
2022/04/12 11:29:43;;;;;;;8.32;5.32;;;;;;;;;;5007208;28;20314;-74
2022/04/12 11:32:11;;;;;;;7.15;3.40;;;;;;;;;;5011469;28;20040;-75
2022/04/12 11:34:40;;;;;;;9.90;4.20;;;;;;;;;;5012384;28;20033;-74
2022/04/12 11:37:10;;;;;;;11.57;4.70;;;;;;;;;;4958131;28;20443;-73
2022/04/12 11:39:42;;;;;;;6.07;4.03;;;;;;;;;;4992344;28;20045;-73
2022/04/12 11:42:12;;;;;;;9.88;4.13;;;;;;;;;;4990026;28;20070;-74
2022/04/12 11:44:38;;;;;;;8.88;3.95;;;;;;;;;;4985862;28;20116;-74
2022/04/12 11:47:10;;;;;;;8.77;4.38;;;;;;;;;;4996291;28;20690;-75
2022/04/12 11:49:47;;;;;;;13.85;5.65;;;;;;;;;;4986101;28;20098;-75
2022/04/12 11:52:15;;;;;;;9.82;6.13;;;;;;;;;;4989343;28;20498;-75
2022/04/12 11:54:45;;;;;;;10.90;4.22;;;;;;;;;;5008626;28;20474;-75
2022/04/12 11:57:13;;;;;;;9.93;4.60;;;;;;;;;;4982424;28;20408;-74
2022/04/12 11:59:57;;;;;;;10.20;5.03;;;;;;;;;;4986061;28;20038;-74
2022/04/12 12:02:25;;;;;;;10.07;5.95;;;;;;;;;;4990974;28;20045;-73
2022/04/12 12:04:58;;;;;;;9.80;5.50;;;;;;;;;;4991879;28;20022;-74
2022/04/12 12:07:27;;;;;;;7.57;4.97;;;;;;;;;;4996817;28;20037;-75
2022/04/12 12:10:04;;;;;;;8.05;4.80;;;;;;;;;;4998106;28;20034;-75
2022/04/12 12:12:35;;;;;;;7.43;4.75;;;;;;;;;;4992196;28;20040;-74
2022/04/12 12:15:24;;;;;;;11.57;5.15;;;;;;;;;;5010294;28;20046;-75
2022/04/12 12:17:54;;;;;;;9.07;5.15;;;;;;;;;;4986713;28;20060;-74
2022/04/12 12:20:29;;;;;;;9.27;4.93;;;;;;;;;;5006418;28;20030;-74
2022/04/12 12:23:02;;;;;;;6.00;3.97;;;;;;;;;;4993074;28;20414;-77
2022/04/12 12:25:51;;;;;;;7.95;4.60;;;;;;;;;;4997401;28;20034;-74
2022/04/12 12:28:22;;;;;;;8.63;4.43;;;;;;;;;;5002424;28;20030;-73
2022/04/12 12:30:58;;;;;;;8.10;4.15;;;;;;;;;;5014980;28;20453;-75
2022/04/12 12:33:37;;;;;;;8.32;5.03;;;;;;;;;;5021995;28;20095;-77
2022/04/12 12:36:25;;;;;;;10.57;4.40;;;;;;;;;;4998836;28;20034;-76
2022/04/12 12:38:53;;;;;;;6.95;4.03;;;;;;;;;;4992162;28;20030;-75
2022/04/12 12:41:31;;;;;;;6.72;3.97;;;;;;;;;;5002476;28;20025;-77
2022/04/12 12:44:01;;;;;;;7.43;3.80;;;;;;;;;;5004780;28;20102;-75
2022/04/12 12:46:28;;;;;;;10.27;3.55;;;;;;;;;;5004104;28;20121;-78
2022/04/12 12:49:36;;;;;;;9.85;4.10;;;;;;;;;;4995037;28;20058;-77
2022/04/12 12:52:14;;;;;;;7.78;4.30;;;;;;;;;;4996732;28;20057;-75
2022/04/12 12:54:40;;;;;;;18.15;4.85;;;;;;;;;;5014440;28;20076;-78
2022/04/12 12:57:09;;;;;;;7.95;4.82;;;;;;;;;;4998703;28;20037;-74
2022/04/12 12:59:39;;;;;;;9.77;4.93;;;;;;;;;;5000276;28;20030;-74
2022/04/12 13:02:10;;;;;;;6.93;4.57;;;;;;;;;;5002321;28;20372;-75
2022/04/12 13:04:38;;;;;;;6.60;3.65;;;;;;;;;;5011647;28;20084;-75
2022/04/12 13:07:14;;;;;;;5.75;3.15;;;;;;;;;;4994664;28;20046;-74
2022/04/12 13:09:42;;;;;;;8.80;3.35;;;;;;;;;;5018217;28;20076;-75
2022/04/12 13:12:09;;;;;;;6.78;3.53;;;;;;;;;;5007868;28;20065;-76
2022/04/12 13:14:36;;;;;;;5.05;3.22;;;;;;;;;;4995414;28;20080;-75
2022/04/12 13:17:03;;;;;;;6.28;3.88;;;;;;;;;;4990975;28;20030;-76
2022/04/12 13:19:30;;;;;;;5.53;3.42;;;;;;;;;;5001838;28;20052;-74
2022/04/12 13:21:58;;;;;;;9.02;3.60;;;;;;;;;;5001900;28;20050;-76
2022/04/12 13:24:25;;;;;;;8.48;4.22;;;;;;;;;;5002927;28;20111;-75
2022/04/12 13:26:50;;;;;;;9.70;5.28;;;;;;;;;;4983411;28;20453;-76
2022/04/12 13:29:18;;;;;;;8.30;4.43;;;;;;;;;;4997409;28;20025;-76
2022/04/12 13:31:45;;;;;;;10.30;5.28;;;;;;;;;;4997060;28;20034;-75
2022/04/12 13:34:11;;;;;;;13.55;7.90;;;;;;;;;;5010540;28;20400;-75
2022/04/12 13:36:36;;;;;;;8.82;5.15;;;;;;;;;;5001711;28;20033;-77
2022/04/12 13:39:04;;;;;;;11.30;5.30;;;;;;;;;;4989067;28;20042;-75
2022/04/12 13:41:30;;;;;;;10.50;5.25;;;;;;;;;;4994028;28;20061;-79
2022/04/12 13:43:56;;;;;;;12.35;6.85;;;;;;;;;;5019677;28;20021;-77
2022/04/12 13:46:22;;;;;;;16.88;7.50;;;;;;;;;;5004025;28;20038;-74
2022/04/12 13:48:48;;;;;;;11.32;5.20;;;;;;;;;;4988697;28;20034;-74
2022/04/12 13:51:14;;;;;;;9.07;4.57;;;;;;;;;;5022349;28;20029;-75
2022/04/12 13:53:39;;;;;;;8.65;5.25;;;;;;;;;;5009457;28;20092;-77
2022/04/12 13:56:05;;;;;;;9.20;4.72;;;;;;;;;;5003938;28;20104;-74
2022/04/12 13:58:31;;;;;;;28.48;7.15;;;;;;;;;;5000455;28;20125;-78
2022/04/12 14:00:57;;;;;;;18.63;5.97;;;;;;;;;;5013814;28;20529;-75
2022/04/12 14:03:23;;;;;;;9.73;5.28;;;;;;;;;;5007181;28;20115;-77
2022/04/12 14:05:50;;;;;;;11.27;5.60;;;;;;;;;;5022834;28;20030;-77
2022/04/12 14:08:16;;;;;;;19.65;6.47;;;;;;;;;;4996814;28;20029;-76
2022/04/12 14:10:44;;;;;;;9.13;5.60;;;;;;;;;;5005036;28;20121;-73
2022/04/12 14:13:10;;;;;;;11.60;6.53;;;;;;;;;;5012640;28;20044;-75
2022/04/12 14:15:36;;;;;;;9.77;5.75;;;;;;;;;;5003034;28;20549;-74
2022/04/12 14:18:03;;;;;;;12.07;6.13;;;;;;;;;;5016705;28;20046;-75
2022/04/12 14:20:28;;;;;;;12.88;5.80;;;;;;;;;;4994512;28;20052;-74
2022/04/12 14:22:54;;;;;;;8.05;5.53;;;;;;;;;;5014774;28;20433;-75
2022/04/12 14:25:23;;;;;;;8.60;5.15;;;;;;;;;;5011380;28;20196;-74
2022/04/12 14:27:50;;;;;;;11.63;5.63;;;;;;;;;;4998104;28;20135;-74
2022/04/12 14:30:17;;;;;;;18.02;6.10;;;;;;;;;;4990523;28;20066;-73
2022/04/12 14:32:43;;;;;;;12.93;4.88;;;;;;;;;;4990177;28;20067;-76
2022/04/12 14:35:11;;;;;;;7.95;3.95;;;;;;;;;;5003657;28;20113;-76
2022/04/12 14:37:36;;;;;;;10.77;4.55;;;;;;;;;;5006349;28;20363;-75